SBOSBO KIN / MKJP
Speedbird OnlineSpeedbird Online KIN / MKJP

Norman Manley International Airport
05:32 27.3°C

Location Kingston, Jamaica
Latitude: 17.935699462890625
Longitude: -76.7874984741211
Local Time 05:33 on 12 Apr 2024
UTC -5 hours (America/Jamaica)
Currency £1 equals JMD 194.57
METAR MKJP 121000Z 22003KT 9999 FEW022 28/24 Q1015
TAF TAF MKJP 120515Z 1206/1306 35005KT 9999 FEW022 BECMG 1214/1216 14017KT BECMG 1300/1302 34004KT
Weather As Of 12 Apr 2024 05:32
Description Few clouds
Wind 6 km/h from South-West (220°)
Cloud Cover 20%
Precipitation Rain: none, Snow: none
Sunrise 05:52
Sunset 18:22
NOTAM 4 active NOTAM
Rotations During the last 90 days there were
33 flights from LGW
36 flights to LGW
Lounges Club Kingston , Main Terminal
Web Wikipedia
Codes IATA: KIN
ICAO: MKJP
Altitude 3 Meter / 10 Feet
Distance 7,557 KM / 4,696 Miles
from London.
Runways
RunwayLength (m)Surface
122713Asphalt
302713Asphalt
Radio
TypeDescriptionFrequency
APPMANLEY APP120.6
ATISATIS127.7
GNDGND121.7
TWRMANLEY TWR118.65
Live ATC



Support Speedbird Online

© 2017-2024 Speedbird Online